Meridianville, AL

8:18 AM CDT on August 30, 2014 (GMT -0500)
Redstone Army Air Field | Change Station
CLOSE
Current Station
Airport
Location: Redstone Arsenal,
Elevation: 686 ft
Nearby Weather Stations

Elev 686 ft 34.68 °N, 86.68 °W | Updated 17 hours ago

Thunderstorm
Thunderstorm
79 °F
Feels Like 79 °F
N
6
Wind Variable Wind from SSE
Gusts 8 mph

Today
High -- | Low -- °F
--% Chance of Precip.
Yesterday
High -- | Low -- °F
Precip. -- in
6:17 AM 7:15 PM
Waxing Crescent, 22% visible
Pressure 30.03 in
Visibility 7.0 miles
Clouds Scattered Clouds 7000 ft
Dew Point 69 °F
Humidity 70%
Rainfall 0.00 in
Snow Depth Not available.
UV 6 out of 12
Pollen 5.20 out of 12
Ozone Good
PM2.5 Moderate
Flu Activity Not available.
METAR KHUA 291955Z 18004KT 7SM SCT070 32/14 A3003 RMK LAST

More Conditions Fewer Conditions

Pressure 30.03 in
Visibility 7.0 miles
Clouds Scattered Clouds 7000 ft
Dew Point 69 °F
Humidity 70%
Rainfall 0.00 in
Snow Depth Not available.
UV 6 out of 12
Pollen 5.20 out of 12
Ozone Good
PM2.5 Moderate
Flu Activity Not available.
METAR KHUA 291955Z 18004KT 7SM SCT070 32/14 A3003 RMK LAST

More Conditions Fewer Conditions

10-Day Weather Forecast

Almanac

Astronomy

Aug. 30, 2014 Rise Set
Actual Time 6:17 AM CDT 7:15 PM CDT
Civil Twilight 5:51 AM CDT 7:41 PM CDT
Nautical Twilight 5:21 AM CDT 8:11 PM CDT
Astronomical Twilight 4:49 AM CDT 8:43 PM CDT
Moon 10:52 AM CDT 10:02 PM CDT
Length of Visible Light 13h 49m
Length of Day
12h 57m
Tomorrow will be 2m 5s shorter.
Waxing Crescent, 22% of the Moon is Illuminated
Today
Waxing Crescent
Sep 2
First Quarter
Sep 8
Full
Sep 15
Last Quarter
Sep 24
New

Today's Extremes

State Highs State Lows

Community

WunderPhotos

Upload Photos

1,748,501 photos uploaded!

WunderBlogs® & News

By Dr. Jeff Masters
Director of Meteorology, Weather Underground
By Kari Strenfel
Meteorologist, Weather Underground
By Christopher C. Burt
Weather Historian, Weather Underground
August 30, 2014
August 30, 2014
August 30, 2014

Nearby

Air Quality

  Air Quality AQ Index Pollutant
Yesterday Moderate
PM2.5
Yesterday Good
OZONE
Current Moderate
PM2.5
Current Good
OZONE
Saturday Moderate
PM2.5
Saturday Good
OZONE
Sunday Good
PM2.5
Sunday Good
OZONE
Monday Good
PM2.5
Monday Good
OZONE
Tuesday Good
PM2.5
Tuesday Good
OZONE

Snow Depth

Station Depth Elevation
No new snow has been reported.

Earthquake Activity

City Distance Mag. Time & Date
No recent earthquake activity has been reported nearby.
Minimum magnitude displayed is 2.5.

Coastal Water Temperatures

Place Temperature
No Stations Reporting

Nearby Weather Stations